createdAt,value
2023-04-03T00:01:19.108Z,99.90
2023-04-03T00:03:47.774Z,99.90
2023-04-03T00:06:16.109Z,99.90
2023-04-03T00:08:46.550Z,99.90
2023-04-03T00:11:14.566Z,99.90
2023-04-03T00:13:42.900Z,99.90
2023-04-03T00:16:12.196Z,99.90
2023-04-03T00:18:41.701Z,99.90
2023-04-03T00:21:12.765Z,99.90
2023-04-03T00:23:40.859Z,99.90
2023-04-03T00:26:10.245Z,99.90
2023-04-03T00:28:38.260Z,99.90
2023-04-03T00:31:06.337Z,99.90
2023-04-03T00:33:34.620Z,99.90
2023-04-03T00:36:08.555Z,99.90
2023-04-03T00:38:36.549Z,99.90
2023-04-03T00:41:05.130Z,99.90
2023-04-03T00:43:34.520Z,99.90
2023-04-03T00:46:06.532Z,99.90
2023-04-03T00:48:38.036Z,99.90
2023-04-03T00:51:08.035Z,99.90
2023-04-03T00:53:41.189Z,99.90
2023-04-03T00:56:11.614Z,99.90
2023-04-03T00:58:46.525Z,99.90
2023-04-03T01:01:18.824Z,99.90
2023-04-03T01:03:47.498Z,99.90
2023-04-03T01:06:18.312Z,99.90
2023-04-03T01:08:47.915Z,99.90
2023-04-03T01:11:16.027Z,99.90
2023-04-03T01:13:45.492Z,99.90
2023-04-03T01:16:13.706Z,99.90
2023-04-03T01:18:42.830Z,99.90
2023-04-03T01:21:41.244Z,99.90
2023-04-03T01:24:23.175Z,99.90
2023-04-03T01:26:51.776Z,99.90
2023-04-03T01:29:21.361Z,99.90
2023-04-03T01:31:53.738Z,99.90
2023-04-03T01:34:22.311Z,99.90
2023-04-03T01:36:50.293Z,99.90
2023-04-03T01:39:18.466Z,99.90
2023-04-03T01:41:47.746Z,99.90
2023-04-03T01:44:16.547Z,99.90
2023-04-03T01:46:44.619Z,99.90
2023-04-03T01:49:13.972Z,99.90
2023-04-03T01:51:42.694Z,99.90
2023-04-03T01:54:10.696Z,99.90
2023-04-03T01:56:39.998Z,99.90
2023-04-03T01:59:08.034Z,99.90
2023-04-03T02:01:36.120Z,99.90
2023-04-03T02:04:04.381Z,99.90
2023-04-03T02:06:33.684Z,99.90
2023-04-03T02:09:01.640Z,99.90
2023-04-03T02:11:29.609Z,99.90
2023-04-03T02:13:57.620Z,99.90
2023-04-03T02:16:25.842Z,99.90
2023-04-03T02:18:53.952Z,99.90
2023-04-03T02:21:21.958Z,99.90
2023-04-03T02:23:51.534Z,99.90
2023-04-03T02:26:19.926Z,99.90
2023-04-03T02:28:48.603Z,99.90
2023-04-03T02:31:16.821Z,99.90
2023-04-03T02:33:44.880Z,99.90
2023-04-03T02:36:12.907Z,99.90
2023-04-03T02:38:40.921Z,99.90
2023-04-03T02:41:14.007Z,99.90
2023-04-03T02:43:42.045Z,99.90
2023-04-03T02:46:10.588Z,99.90
2023-04-03T02:48:39.190Z,99.90
2023-04-03T02:51:07.252Z,99.90
2023-04-03T02:53:35.828Z,99.90
2023-04-03T02:56:03.817Z,99.90
2023-04-03T02:58:33.165Z,99.90
2023-04-03T03:01:01.192Z,99.90
2023-04-03T03:03:29.210Z,99.90
2023-04-03T03:06:05.059Z,99.90
2023-04-03T03:08:33.137Z,99.90
2023-04-03T03:11:01.193Z,99.90
2023-04-03T03:13:29.559Z,99.90
2023-04-03T03:15:59.033Z,99.90
2023-04-03T03:18:27.540Z,99.90
2023-04-03T03:20:56.114Z,99.90
2023-04-03T03:23:26.123Z,99.90
2023-04-03T03:25:57.458Z,99.90
2023-04-03T03:28:25.940Z,99.90
2023-04-03T03:30:54.735Z,99.90
2023-04-03T03:33:24.101Z,99.90
2023-04-03T03:35:52.338Z,99.90
2023-04-03T03:38:20.755Z,99.90
2023-04-03T03:40:49.645Z,99.90
2023-04-03T03:43:18.524Z,99.90
2023-04-03T03:45:47.553Z,99.90
2023-04-03T03:48:15.568Z,99.90
2023-04-03T03:50:45.002Z,99.90
2023-04-03T03:53:12.980Z,99.90
2023-04-03T03:55:41.337Z,99.90
2023-04-03T03:58:09.522Z,99.90
2023-04-03T04:00:37.620Z,99.90
2023-04-03T04:03:05.814Z,99.90
2023-04-03T04:05:33.934Z,99.90
2023-04-03T04:08:05.369Z,99.90
2023-04-03T04:10:33.415Z,99.90
2023-04-03T04:13:01.679Z,99.90
2023-04-03T04:15:30.030Z,99.90
2023-04-03T04:17:58.129Z,99.90
2023-04-03T04:20:26.528Z,99.90
2023-04-03T04:22:54.502Z,99.90
2023-04-03T04:25:23.843Z,99.90
2023-04-03T04:27:51.812Z,99.90
2023-04-03T04:30:19.956Z,99.90
2023-04-03T04:32:48.438Z,99.90
2023-04-03T04:35:17.103Z,99.90
2023-04-03T04:37:45.713Z,99.90
2023-04-03T04:40:14.081Z,99.90
2023-04-03T04:42:43.642Z,99.90
2023-04-03T04:45:12.825Z,99.90
2023-04-03T04:47:41.401Z,99.90
2023-04-03T04:50:10.072Z,99.90
2023-04-03T04:52:38.141Z,99.90
2023-04-03T04:55:07.096Z,99.90
2023-04-03T04:57:36.605Z,99.90
2023-04-03T05:00:07.457Z,99.90
2023-04-03T05:02:35.517Z,99.90
2023-04-03T05:05:05.161Z,99.90
2023-04-03T05:07:33.534Z,99.90
2023-04-03T05:10:01.942Z,99.90
2023-04-03T05:12:30.028Z,99.90
2023-04-03T05:14:58.043Z,99.90
2023-04-03T05:17:27.438Z,99.90
2023-04-03T05:19:55.517Z,99.90
2023-04-03T05:22:26.734Z,99.90
2023-04-03T05:24:54.776Z,99.90
2023-04-03T05:27:24.487Z,99.90
2023-04-03T05:29:52.495Z,99.90
2023-04-03T05:32:21.205Z,99.90
2023-04-03T05:34:50.756Z,99.90
2023-04-03T05:37:18.750Z,99.90
2023-04-03T05:39:46.832Z,99.90
2023-04-03T05:42:14.979Z,99.90
2023-04-03T05:44:42.935Z,99.90
2023-04-03T05:47:11.104Z,99.90
2023-04-03T05:49:41.642Z,99.90
2023-04-03T05:52:19.898Z,99.90
2023-04-03T05:54:49.255Z,99.90
2023-04-03T05:57:19.463Z,99.90
2023-04-03T05:59:48.577Z,99.90
2023-04-03T06:02:19.311Z,99.90
2023-04-03T06:04:48.808Z,99.90
2023-04-03T06:07:22.501Z,99.90
2023-04-03T06:09:52.203Z,99.90
2023-04-03T06:12:20.829Z,99.90
2023-04-03T06:14:48.794Z,99.90
2023-04-03T06:17:18.887Z,99.90
2023-04-03T06:19:48.063Z,99.90
2023-04-03T06:22:16.575Z,99.90
2023-04-03T06:24:45.897Z,99.90
2023-04-03T06:27:14.238Z,99.90
2023-04-03T06:29:42.247Z,99.90
2023-04-03T06:32:10.582Z,99.90
2023-04-03T06:34:38.865Z,99.90
2023-04-03T06:37:07.247Z,99.90
2023-04-03T06:39:35.846Z,99.90
2023-04-03T06:42:05.376Z,99.90
2023-04-03T06:44:35.258Z,99.90
2023-04-03T06:47:03.389Z,99.90
2023-04-03T06:49:31.465Z,99.90
2023-04-03T06:52:01.008Z,99.90
2023-04-03T06:54:30.652Z,99.90
2023-04-03T06:56:59.294Z,99.90
2023-04-03T06:59:29.087Z,99.90
2023-04-03T07:01:57.131Z,99.90
2023-04-03T07:04:25.267Z,99.90
2023-04-03T07:06:53.394Z,99.90
2023-04-03T07:09:25.363Z,99.90
2023-04-03T07:11:53.384Z,99.90
2023-04-03T07:14:22.196Z,99.90
2023-04-03T07:16:51.823Z,99.90
2023-04-03T07:19:20.038Z,99.90
2023-04-03T07:21:49.296Z,99.90
2023-04-03T07:24:17.433Z,99.90
2023-04-03T07:26:46.320Z,99.90
2023-04-03T07:29:15.093Z,99.90
2023-04-03T07:31:45.803Z,99.90
2023-04-03T07:34:15.908Z,99.90
2023-04-03T07:36:44.210Z,99.90
2023-04-03T07:39:12.506Z,99.90
2023-04-03T07:41:40.709Z,99.90
2023-04-03T07:44:10.686Z,99.90
2023-04-03T07:46:39.641Z,99.90
2023-04-03T07:49:07.719Z,99.90
2023-04-03T07:51:37.227Z,99.90
2023-04-03T07:54:06.164Z,99.90
2023-04-03T07:56:34.445Z,99.90
2023-04-03T07:59:03.255Z,99.90
2023-04-03T08:01:33.458Z,99.90
2023-04-03T08:04:02.206Z,99.90
2023-04-03T08:06:44.974Z,99.90
2023-04-03T08:09:17.053Z,99.90
2023-04-03T08:11:46.227Z,99.90
2023-04-03T08:14:17.694Z,99.90
2023-04-03T08:16:47.182Z,99.90
2023-04-03T08:19:25.453Z,99.90
2023-04-03T08:21:55.820Z,99.90
2023-04-03T08:24:25.384Z,99.90
2023-04-03T08:26:53.627Z,99.90
2023-04-03T08:29:22.113Z,99.90
2023-04-03T08:31:50.733Z,99.90
2023-04-03T08:34:19.940Z,99.90
2023-04-03T08:36:48.177Z,99.90
2023-04-03T08:39:16.172Z,99.90
2023-04-03T08:41:47.451Z,99.90
2023-04-03T08:44:23.715Z,99.90
2023-04-03T08:47:06.358Z,99.90
2023-04-03T08:49:39.759Z,99.90
2023-04-03T08:52:13.626Z,99.90
2023-04-03T08:54:52.401Z,99.90
2023-04-03T08:57:33.463Z,99.90
2023-04-03T09:00:05.335Z,99.90
2023-04-03T09:02:37.268Z,99.90
2023-04-03T09:05:14.795Z,99.90
2023-04-03T09:07:48.441Z,99.90
2023-04-03T09:10:25.267Z,99.90
2023-04-03T09:13:01.790Z,99.90
2023-04-03T09:15:38.472Z,99.90
2023-04-03T09:18:13.812Z,99.90
2023-04-03T09:20:48.239Z,99.90
2023-04-03T09:23:23.704Z,99.90
2023-04-03T09:25:55.595Z,99.90
2023-04-03T09:28:25.291Z,99.90
2023-04-03T09:30:53.863Z,99.90
2023-04-03T09:33:23.620Z,99.90
2023-04-03T09:35:53.067Z,99.90
2023-04-03T09:38:23.565Z,99.90
2023-04-03T09:40:53.753Z,99.90
2023-04-03T09:43:31.470Z,99.90
2023-04-03T09:46:20.705Z,99.90
2023-04-03T09:49:07.357Z,99.90
2023-04-03T09:51:37.793Z,99.90
2023-04-03T09:54:38.615Z,99.90
2023-04-03T09:57:11.029Z,99.90
2023-04-03T09:59:48.550Z,99.90
2023-04-03T10:02:36.581Z,99.90
2023-04-03T10:05:09.808Z,99.90
2023-04-03T10:07:46.449Z,99.90
2023-04-03T10:10:24.034Z,99.90
2023-04-03T10:13:06.627Z,99.90
2023-04-03T10:15:41.556Z,99.90
2023-04-03T10:18:24.688Z,99.90
2023-04-03T10:20:56.151Z,99.90
2023-04-03T10:23:30.026Z,99.90
2023-04-03T10:26:12.675Z,99.90
2023-04-03T10:28:49.373Z,99.90
2023-04-03T10:31:27.822Z,99.90
2023-04-03T10:34:05.989Z,99.90
2023-04-03T10:36:44.653Z,99.90
2023-04-03T10:39:29.352Z,99.90
2023-04-03T10:42:16.526Z,99.90
2023-04-03T10:45:01.508Z,99.90
2023-04-03T10:47:39.471Z,99.90
2023-04-03T10:50:31.264Z,99.90
2023-04-03T10:53:07.922Z,99.90
2023-04-03T10:55:40.551Z,99.90
2023-04-03T10:58:16.617Z,99.90
2023-04-03T11:00:49.949Z,99.90
2023-04-03T11:03:32.404Z,99.90
2023-04-03T11:06:03.957Z,99.90
2023-04-03T11:08:37.166Z,99.90
2023-04-03T11:11:10.658Z,99.90
2023-04-03T11:13:45.354Z,99.90
2023-04-03T11:16:19.942Z,99.90
2023-04-03T11:18:54.662Z,99.90
2023-04-03T11:21:28.313Z,99.90
2023-04-03T11:24:00.528Z,99.90
2023-04-03T11:26:34.887Z,99.90
2023-04-03T11:29:07.032Z,99.90
2023-04-03T11:31:47.881Z,99.90
2023-04-03T11:34:35.849Z,99.90
2023-04-03T11:37:06.533Z,99.60
2023-04-03T11:39:39.539Z,97.90
2023-04-03T11:42:19.689Z,98.40
2023-04-03T11:44:48.730Z,95.20
2023-04-03T11:47:47.995Z,95.80
2023-04-03T11:50:41.595Z,90.40
2023-04-03T11:53:40.118Z,92.00
2023-04-03T11:56:32.201Z,96.00
2023-04-03T11:59:23.435Z,93.20
2023-04-03T12:01:53.098Z,89.80
2023-04-03T12:04:22.968Z,90.80
2023-04-03T12:07:20.418Z,91.60
2023-04-03T12:10:01.520Z,92.40
2023-04-03T12:12:42.055Z,92.10
2023-04-03T12:15:43.668Z,92.50
2023-04-03T12:18:43.829Z,93.30
2023-04-03T12:21:13.465Z,90.10
2023-04-03T12:24:24.899Z,92.70
2023-04-03T12:27:05.139Z,92.20
2023-04-03T12:29:42.135Z,90.60
2023-04-03T12:32:22.132Z,91.00
2023-04-03T12:35:07.328Z,90.30
2023-04-03T12:37:50.372Z,92.60
2023-04-03T12:40:28.119Z,92.40
2023-04-03T12:43:27.712Z,94.10
2023-04-03T12:46:04.262Z,93.40
2023-04-03T12:48:35.791Z,93.80
2023-04-03T12:51:05.488Z,94.30
2023-04-03T12:53:36.530Z,93.60
2023-04-03T12:56:26.015Z,95.10
2023-04-03T12:58:55.762Z,95.30
2023-04-03T13:01:26.087Z,95.80
2023-04-03T13:03:57.425Z,93.00
2023-04-03T13:06:29.174Z,94.20
2023-04-03T13:08:59.151Z,95.20
2023-04-03T13:11:32.670Z,94.30
2023-04-03T13:14:03.002Z,94.50
2023-04-03T13:16:31.495Z,92.80
2023-04-03T13:19:00.563Z,93.40
2023-04-03T13:21:32.569Z,92.10
2023-04-03T13:24:14.805Z,93.00
2023-04-03T13:26:45.332Z,91.40
2023-04-03T13:29:30.905Z,93.70
2023-04-03T13:32:01.048Z,93.30
2023-04-03T13:34:33.154Z,91.90
2023-04-03T13:37:05.378Z,91.30
2023-04-03T13:39:35.431Z,92.00
2023-04-03T13:42:17.716Z,89.60
2023-04-03T13:44:46.394Z,90.10
2023-04-03T13:47:21.566Z,86.40
2023-04-03T13:50:02.441Z,88.30
2023-04-03T13:52:37.259Z,83.60
2023-04-03T13:55:26.001Z,81.30
2023-04-03T13:58:01.550Z,78.90
2023-04-03T14:00:39.548Z,79.10
2023-04-03T14:03:21.132Z,81.20
2023-04-03T14:05:49.727Z,79.00
2023-04-03T14:08:22.114Z,80.40
2023-04-03T14:10:55.178Z,80.90
2023-04-03T14:13:24.715Z,79.20
2023-04-03T14:15:54.998Z,77.60
2023-04-03T14:18:24.662Z,78.60
2023-04-03T14:20:53.044Z,77.60
2023-04-03T14:23:21.091Z,78.10
2023-04-03T14:25:49.172Z,79.50
2023-04-03T14:28:19.730Z,76.70
2023-04-03T14:30:50.969Z,80.50
2023-04-03T14:33:21.952Z,81.50
2023-04-03T14:35:50.751Z,79.80
2023-04-03T14:38:27.905Z,79.80
2023-04-03T14:41:03.505Z,79.40
2023-04-03T14:43:38.189Z,78.90
2023-04-03T14:46:11.960Z,78.40
2023-04-03T14:48:40.389Z,78.50
2023-04-03T14:51:08.953Z,74.70
2023-04-03T14:53:39.231Z,73.20
2023-04-03T14:56:14.477Z,78.90
2023-04-03T14:58:42.800Z,74.70
2023-04-03T15:01:15.149Z,73.50
2023-04-03T15:03:44.166Z,72.30
2023-04-03T15:06:14.386Z,75.80
2023-04-03T15:08:45.076Z,73.80
2023-04-03T15:11:13.327Z,75.40
2023-04-03T15:13:41.856Z,76.00
2023-04-03T15:16:18.739Z,75.10
2023-04-03T15:18:48.268Z,75.90
2023-04-03T15:21:16.609Z,75.70
2023-04-03T15:23:44.741Z,74.50
2023-04-03T15:26:12.840Z,77.90
2023-04-03T15:28:42.809Z,78.50
2023-04-03T15:31:11.516Z,80.60
2023-04-03T15:33:41.417Z,83.10
2023-04-03T15:36:29.200Z,77.90
2023-04-03T15:38:58.282Z,75.60
2023-04-03T15:41:27.061Z,76.50
2023-04-03T15:43:55.105Z,80.60
2023-04-03T15:46:23.223Z,78.70
2023-04-03T15:48:52.765Z,75.30
2023-04-03T15:51:21.011Z,75.40
2023-04-03T15:53:49.517Z,77.70
2023-04-03T15:56:17.634Z,79.80
2023-04-03T15:58:45.785Z,80.70
2023-04-03T16:01:14.117Z,82.10
2023-04-03T16:03:46.344Z,81.90
2023-04-03T16:06:17.526Z,84.70
2023-04-03T16:08:45.711Z,87.00
2023-04-03T16:11:13.869Z,89.30
2023-04-03T16:13:41.988Z,89.40
2023-04-03T16:16:11.616Z,90.30
2023-04-03T16:18:40.382Z,91.10
2023-04-03T16:21:09.475Z,91.80
2023-04-03T16:23:38.989Z,92.60
2023-04-03T16:26:06.999Z,92.70
2023-04-03T16:28:35.159Z,94.20
2023-04-03T16:31:04.176Z,93.80
2023-04-03T16:33:32.420Z,94.10
2023-04-03T16:36:00.603Z,94.90
2023-04-03T16:38:28.708Z,94.10
2023-04-03T16:41:00.401Z,95.00
2023-04-03T16:43:29.823Z,95.70
2023-04-03T16:45:57.982Z,95.60
2023-04-03T16:48:26.182Z,95.40
2023-04-03T16:50:54.562Z,95.90
2023-04-03T16:53:22.953Z,95.40
2023-04-03T16:55:51.707Z,95.30
2023-04-03T16:58:22.621Z,95.50
2023-04-03T17:00:52.207Z,95.00
2023-04-03T17:03:20.376Z,95.60
2023-04-03T17:05:49.423Z,95.10
2023-04-03T17:08:19.209Z,96.00
2023-04-03T17:10:48.785Z,96.40
2023-04-03T17:13:18.198Z,97.40
2023-04-03T17:15:47.892Z,97.30
2023-04-03T17:18:16.496Z,98.00
2023-04-03T17:20:44.893Z,98.50
2023-04-03T17:23:13.057Z,98.10
2023-04-03T17:25:41.233Z,97.20
2023-04-03T17:28:09.442Z,96.90
2023-04-03T17:30:37.507Z,96.90
2023-04-03T17:33:07.190Z,97.70
2023-04-03T17:35:35.311Z,98.20
2023-04-03T17:38:04.222Z,98.30
2023-04-03T17:40:32.296Z,98.80
2023-04-03T17:43:00.457Z,98.90
2023-04-03T17:45:29.615Z,99.40
2023-04-03T17:47:58.909Z,99.60
2023-04-03T17:50:28.711Z,99.60
2023-04-03T17:52:56.864Z,99.90
2023-04-03T17:55:25.933Z,99.90
2023-04-03T17:57:54.358Z,99.90
2023-04-03T18:00:22.895Z,99.90
2023-04-03T18:02:54.164Z,99.90
2023-04-03T18:05:22.357Z,99.90
2023-04-03T18:07:51.867Z,99.90
2023-04-03T18:10:20.922Z,99.90
2023-04-03T18:12:49.301Z,99.90
2023-04-03T18:15:17.491Z,99.90
2023-04-03T18:17:46.357Z,99.90
2023-04-03T18:20:16.334Z,99.90
2023-04-03T18:22:45.118Z,99.70
2023-04-03T18:25:16.670Z,99.90
2023-04-03T18:27:45.580Z,99.90
2023-04-03T18:30:17.711Z,99.90
2023-04-03T18:32:46.471Z,99.90
2023-04-03T18:35:14.539Z,99.90
2023-04-03T18:37:42.821Z,99.90
2023-04-03T18:40:12.169Z,99.90
2023-04-03T18:42:43.074Z,99.90
2023-04-03T18:45:13.819Z,99.90
2023-04-03T18:47:42.077Z,99.90
2023-04-03T18:50:10.866Z,99.90
2023-04-03T18:52:38.927Z,99.90
2023-04-03T18:55:08.447Z,99.90
2023-04-03T18:57:36.964Z,99.90
2023-04-03T19:00:08.522Z,99.90
2023-04-03T19:02:37.203Z,99.90
2023-04-03T19:05:09.759Z,99.90
2023-04-03T19:07:38.172Z,99.90
2023-04-03T19:10:07.210Z,99.90
2023-04-03T19:12:35.682Z,99.90
2023-04-03T19:15:03.987Z,99.90
2023-04-03T19:17:33.473Z,99.90
2023-04-03T19:20:02.269Z,99.90
2023-04-03T19:22:30.564Z,99.90
2023-04-03T19:24:58.788Z,99.90
2023-04-03T19:27:26.990Z,99.90
2023-04-03T19:29:55.177Z,99.90
2023-04-03T19:32:23.779Z,99.90
2023-04-03T19:34:53.408Z,99.90
2023-04-03T19:37:21.535Z,99.90
2023-04-03T19:39:49.691Z,99.90
2023-04-03T19:42:18.875Z,99.90
2023-04-03T19:44:48.704Z,99.90
2023-04-03T19:47:18.918Z,99.90
2023-04-03T19:49:47.189Z,99.90
2023-04-03T19:52:16.659Z,99.90
2023-04-03T19:54:44.850Z,99.90
2023-04-03T19:57:13.624Z,99.90
2023-04-03T19:59:41.704Z,99.90
2023-04-03T20:02:09.853Z,99.90
2023-04-03T20:04:38.011Z,99.90
2023-04-03T20:07:06.213Z,99.90
2023-04-03T20:09:36.349Z,99.90
2023-04-03T20:12:04.504Z,99.90
2023-04-03T20:14:32.717Z,99.90
2023-04-03T20:17:00.711Z,99.90
2023-04-03T20:19:30.217Z,99.90
2023-04-03T20:22:00.735Z,99.90
2023-04-03T20:24:29.393Z,99.90
2023-04-03T20:26:59.508Z,99.90
2023-04-03T20:29:27.774Z,99.90
2023-04-03T20:31:55.989Z,99.90
2023-04-03T20:34:24.954Z,99.90
2023-04-03T20:36:53.087Z,99.90
2023-04-03T20:39:24.139Z,99.90
2023-04-03T20:41:52.343Z,99.90
2023-04-03T20:44:21.961Z,99.90
2023-04-03T20:46:53.512Z,99.90
2023-04-03T20:49:23.047Z,99.90
2023-04-03T20:51:52.274Z,99.90
2023-04-03T20:54:20.559Z,99.90
2023-04-03T20:56:49.719Z,99.90
2023-04-03T20:59:19.280Z,99.90
2023-04-03T21:01:48.933Z,99.90
2023-04-03T21:04:20.932Z,99.90
2023-04-03T21:07:27.387Z,99.90
2023-04-03T21:10:34.374Z,99.90
2023-04-03T21:13:39.791Z,99.90
2023-04-03T21:16:07.642Z,99.90
2023-04-03T21:18:55.783Z,99.90
2023-04-03T21:21:26.520Z,99.90
2023-04-03T21:23:55.813Z,99.90
2023-04-03T21:26:26.865Z,99.90
2023-04-03T21:28:55.882Z,99.90
2023-04-03T21:31:24.754Z,99.90
2023-04-03T21:33:55.081Z,99.90
2023-04-03T21:36:23.127Z,99.90
2023-04-03T21:38:51.524Z,99.90
2023-04-03T21:41:19.684Z,99.90
2023-04-03T21:43:48.145Z,99.90
2023-04-03T21:46:16.445Z,99.90
2023-04-03T21:48:47.055Z,99.90
2023-04-03T21:51:17.314Z,99.90
2023-04-03T21:53:46.595Z,99.90
2023-04-03T21:56:14.599Z,99.90
2023-04-03T21:58:43.481Z,99.90
2023-04-03T22:01:12.284Z,99.90
2023-04-03T22:03:41.623Z,99.90
2023-04-03T22:06:10.300Z,99.90
2023-04-03T22:08:40.032Z,99.90
2023-04-03T22:11:11.130Z,99.90
2023-04-03T22:13:39.107Z,99.90
2023-04-03T22:16:07.732Z,99.90
2023-04-03T22:18:36.491Z,99.90
2023-04-03T22:21:04.762Z,99.90
2023-04-03T22:23:32.992Z,99.90
2023-04-03T22:26:04.812Z,99.90
2023-04-03T22:28:34.385Z,99.90
2023-04-03T22:31:03.877Z,99.90
2023-04-03T22:33:32.114Z,99.90
2023-04-03T22:36:00.564Z,99.90
2023-04-03T22:38:28.636Z,99.90
2023-04-03T22:41:00.842Z,99.90
2023-04-03T22:43:31.565Z,99.90
2023-04-03T22:46:02.325Z,99.90
2023-04-03T22:48:30.857Z,99.90
2023-04-03T22:51:01.132Z,99.90
2023-04-03T22:53:29.546Z,99.90
2023-04-03T22:55:58.106Z,99.90
2023-04-03T22:58:27.065Z,99.90
2023-04-03T23:00:57.853Z,99.90
2023-04-03T23:03:26.111Z,99.90
2023-04-03T23:05:58.891Z,99.90
2023-04-03T23:08:28.824Z,99.90
2023-04-03T23:10:58.038Z,99.90
2023-04-03T23:13:26.670Z,99.90
2023-04-03T23:15:56.650Z,99.90
2023-04-03T23:18:25.048Z,99.90
2023-04-03T23:20:55.332Z,99.90
2023-04-03T23:23:24.288Z,99.90
2023-04-03T23:25:55.312Z,99.90
2023-04-03T23:28:23.672Z,99.90
2023-04-03T23:30:58.470Z,99.90
2023-04-03T23:33:27.985Z,99.90
2023-04-03T23:35:56.346Z,99.90
2023-04-03T23:38:24.434Z,99.90
2023-04-03T23:40:52.469Z,99.90
2023-04-03T23:43:21.251Z,99.90
2023-04-03T23:45:49.347Z,99.90
2023-04-03T23:48:17.383Z,99.90
2023-04-03T23:50:46.918Z,99.90
2023-04-03T23:53:14.955Z,99.90
2023-04-03T23:55:43.428Z,99.90
2023-04-03T23:58:11.708Z,99.90
